Patos de Minas, Brazil
Current Conditions -  °F | °C
As of 2:23 AM on Sunday 23 Nov 2014 (Local Time) from SBUL Reporting Station
Scattered Clouds Scattered Clouds  
Wind Chill: 66°   Ceiling: Unl
Heat Index: 66°   Visibility: 3mi
Dew Point: 64°   Wind: 9mph
Humidity: 94%   Direction: 60°ENE
Pressure: 30"   Gusts: NA
Location:  18.58°S, 46.52°W
Report Text: SBUL 230423Z 06008KT 5000 SCT002 SCT008 19/18 Q1016
Loading
Personal Weather Stations






























Interactive Weather Map New forecast layout! Learn more

10-Day Weather Forecast

Advertisements
Track Severe Weather on mobile